Time;durP1;ratioP1;P1;durP2;ratioP2;P2;SDS_P1;SDS_P2;PMS_P1;PMS_P2;Temp;Humidity;BMP_temperature;BMP_pressure;BME280_temperature;BME280_humidity;BME280_pressure;Samples;Min_cycle;Max_cycle;Signal;HPM_P1;HPM_P2
2021/11/03 00:00:43;;;;;;;55.00;30.30;;;;;;;7.18;89.83;97346.04;112740;1206;137369;-81
2021/11/03 00:03:10;;;;;;;49.90;28.20;;;;;;;7.17;89.79;97347.16;112773;1200;26411;-80
2021/11/03 00:05:45;;;;;;;47.80;26.50;;;;;;;7.16;89.91;97346.89;112680;1192;138135;-80
2021/11/03 00:08:25;;;;;;;46.30;26.80;;;;;;;7.16;89.79;97342.17;113032;1205;22453;-80
2021/11/03 00:10:52;;;;;;;44.90;28.10;;;;;;;7.17;89.87;97339.15;112854;1205;137567;-80
2021/11/03 00:13:22;;;;;;;47.70;28.00;;;;;;;7.17;90.15;97342.23;113022;1198;22454;-80
2021/11/03 00:15:51;;;;;;;42.10;25.70;;;;;;;7.18;89.84;97342.79;112807;1206;24088;-80
2021/11/03 00:18:17;;;;;;;41.40;25.80;;;;;;;7.19;89.66;97344.77;112722;1206;138478;-81
2021/11/03 00:20:44;;;;;;;41.00;25.10;;;;;;;7.19;89.68;97344.71;112916;1205;25018;-81
2021/11/03 00:23:11;;;;;;;46.20;25.90;;;;;;;7.19;89.66;97353.27;112738;1200;138149;-80
2021/11/03 00:25:40;;;;;;;44.80;24.70;;;;;;;7.17;89.73;97360.88;112936;1205;24035;-80
2021/11/03 00:28:09;;;;;;;44.90;24.30;;;;;;;7.16;89.80;97363.98;113149;1205;22457;-81
2021/11/03 00:30:36;;;;;;;41.00;24.00;;;;;;;7.15;89.66;97362.41;112972;1206;138140;-80
2021/11/03 00:33:18;;;;;;;38.00;22.40;;;;;;;7.15;89.96;97364.69;113062;1200;22440;-80
2021/11/03 00:35:44;;;;;;;43.30;23.70;;;;;;;7.16;89.93;97368.54;112869;1205;137954;-80
2021/11/03 00:38:11;;;;;;;42.60;24.50;;;;;;;7.16;90.02;97368.38;113003;1204;22464;-81
2021/11/03 00:40:38;;;;;;;42.60;24.80;;;;;;;7.16;89.92;97372.11;112996;1205;25493;-81
2021/11/03 00:43:05;;;;;;;40.10;22.70;;;;;;;7.17;89.94;97378.52;112893;1200;138450;-83
2021/11/03 00:45:33;;;;;;;41.10;24.50;;;;;;;7.16;89.67;97385.86;112934;1200;22440;-81
2021/11/03 00:47:59;;;;;;;43.80;24.60;;;;;;;7.15;89.77;97390.19;112843;1201;137474;-81
2021/11/03 00:50:27;;;;;;;44.30;25.60;;;;;;;7.15;89.71;97391.15;112900;1205;22434;-80
2021/11/03 00:52:54;;;;;;;44.70;25.70;;;;;;;7.12;89.41;97393.02;112796;1198;138202;-81
2021/11/03 00:55:21;;;;;;;43.60;24.50;;;;;;;7.09;89.36;97396.27;112984;1199;22438;-81
2021/11/03 00:57:48;;;;;;;40.10;23.50;;;;;;;7.07;89.65;97396.77;112892;1206;22455;-81
2021/11/03 01:00:17;;;;;;;43.30;24.80;;;;;;;7.04;89.50;97399.13;112805;1205;137725;-81
2021/11/03 01:02:44;;;;;;;40.30;24.40;;;;;;;7.02;89.64;97398.62;112884;1205;22493;-81
2021/11/03 01:05:15;;;;;;;46.30;25.00;;;;;;;6.99;89.22;97400.14;112762;1201;138246;-81
2021/11/03 01:07:42;;;;;;;38.00;23.00;;;;;;;6.95;89.28;97403.15;112823;1199;22444;-80
2021/11/03 01:10:13;;;;;;;40.70;24.40;;;;;;;6.93;89.64;97407.03;112928;1207;22448;-81
2021/11/03 01:12:40;;;;;;;47.20;26.50;;;;;;;6.92;89.47;97410.85;112893;1206;137997;-80
2021/11/03 01:15:11;;;;;;;43.00;25.00;;;;;;;6.89;89.30;97414.86;112990;1200;22454;-81
2021/11/03 01:17:37;;;;;;;43.40;25.00;;;;;;;6.83;89.15;97410.98;112915;1192;138633;-81
2021/11/03 01:20:09;;;;;;;39.70;24.20;;;;;;;6.81;89.22;97409.50;112937;1205;25021;-81
2021/11/03 01:22:38;;;;;;;38.10;21.80;;;;;;;6.80;89.21;97407.48;112923;1206;25187;-80
2021/11/03 01:25:11;;;;;;;40.90;23.80;;;;;;;6.79;89.43;97400.27;112776;1202;137148;-81
2021/11/03 01:27:42;;;;;;;45.50;25.20;;;;;;;6.78;89.61;97401.38;112911;1205;25136;-80
2021/11/03 01:30:13;;;;;;;40.60;24.00;;;;;;;6.76;89.26;97403.63;113037;1206;138110;-80
2021/11/03 01:32:39;;;;;;;41.20;24.20;;;;;;;6.74;89.31;97407.64;112844;1206;23791;-80
2021/11/03 01:35:23;;;;;;;43.30;23.00;;;;;;;6.72;89.55;97401.13;112825;1198;137874;-80
2021/11/03 01:37:50;;;;;;;45.30;24.70;;;;;;;6.70;89.42;97399.84;112987;1200;22566;-80
2021/11/03 01:40:22;;;;;;;40.00;24.40;;;;;;;6.66;89.23;97398.98;113031;1198;24046;-80
2021/11/03 01:42:49;;;;;;;44.20;22.90;;;;;;;6.63;89.40;97397.84;113018;1205;138360;-80
2021/11/03 01:45:23;;;;;;;39.70;23.00;;;;;;;6.61;89.25;97399.27;112944;1198;22466;-80
2021/11/03 01:47:55;;;;;;;38.00;23.30;;;;;;;6.59;89.46;97396.60;112755;1205;137649;-80
2021/11/03 01:50:30;;;;;;;43.90;24.90;;;;;;;6.58;89.29;97401.45;113053;1206;22517;-80
2021/11/03 01:53:12;;;;;;;45.20;24.20;;;;;;;6.56;89.36;97409.16;112953;1206;137814;-80
2021/11/03 01:56:01;;;;;;;43.10;24.40;;;;;;;6.54;89.49;97413.00;112957;1200;24154;-80
2021/11/03 01:58:39;;;;;;;45.80;25.60;;;;;;;6.52;89.60;97412.22;112942;1205;22745;-80
2021/11/03 02:01:06;;;;;;;40.40;23.20;;;;;;;6.52;89.44;97409.23;112902;1205;137802;-80
2021/11/03 02:03:35;;;;;;;42.80;23.30;;;;;;;6.52;89.66;97408.42;112926;1205;23853;-80
2021/11/03 02:06:08;;;;;;;45.00;24.60;;;;;;;6.53;89.41;97405.46;112909;1199;137398;-80
2021/11/03 02:08:38;;;;;;;44.70;23.50;;;;;;;6.53;89.39;97407.74;112962;1205;24112;-80
2021/11/03 02:11:05;;;;;;;42.80;23.50;;;;;;;6.53;89.40;97408.43;112760;1205;138342;-80
2021/11/03 02:13:34;;;;;;;39.40;22.90;;;;;;;6.51;89.08;97408.63;112881;1205;25160;-80
2021/11/03 02:16:01;;;;;;;43.60;24.70;;;;;;;6.51;89.36;97411.28;113015;1200;22462;-80
2021/11/03 02:18:28;;;;;;;39.00;23.20;;;;;;;6.48;88.97;97410.25;112853;1206;137994;-80
2021/11/03 02:20:55;;;;;;;41.60;22.80;;;;;;;6.44;89.18;97414.25;113242;1206;22471;-79
2021/11/03 02:23:24;;;;;;;37.70;22.20;;;;;;;6.43;89.12;97414.01;113025;1199;138873;-80
2021/11/03 02:26:06;;;;;;;39.30;21.10;;;;;;;6.40;89.08;97411.46;113074;1200;22451;-80
2021/11/03 02:28:33;;;;;;;36.20;21.10;;;;;;;6.39;89.08;97413.02;112991;1205;25219;-80
2021/11/03 02:31:03;;;;;;;38.90;22.40;;;;;;;6.39;89.12;97412.86;112962;1205;137535;-80
2021/11/03 02:33:30;;;;;;;40.40;21.80;;;;;;;6.36;89.00;97411.72;112961;1206;22475;-80
2021/11/03 02:36:00;;;;;;;37.20;22.50;;;;;;;6.36;88.82;97416.92;113397;1199;137883;-80
2021/11/03 02:38:35;;;;;;;41.00;23.00;;;;;;;6.34;88.89;97423.52;113295;1206;22599;-80
2021/11/03 02:41:12;;;;;;;38.60;21.40;;;;;;;6.32;89.03;97426.36;113239;1205;138546;-80
2021/11/03 02:43:44;;;;;;;41.00;22.70;;;;;;;6.31;88.87;97428.46;113176;1206;22886;-80
2021/11/03 02:46:26;;;;;;;36.30;20.50;;;;;;;6.31;89.11;97424.13;113225;1200;22466;-80
2021/11/03 02:48:52;;;;;;;41.40;21.90;;;;;;;6.30;89.21;97423.35;113132;1206;138828;-80
2021/11/03 02:51:33;;;;;;;42.00;22.50;;;;;;;6.29;89.12;97417.34;113269;1206;24207;-80
2021/11/03 02:54:05;;;;;;;36.00;21.30;;;;;;;6.32;89.30;97410.35;113237;1206;139443;-80
2021/11/03 02:56:38;;;;;;;32.80;19.60;;;;;;;6.33;89.20;97409.58;113263;1203;22435;-80
2021/11/03 02:59:07;;;;;;;37.60;21.40;;;;;;;6.33;89.13;97413.45;113244;1205;137615;-79
2021/11/03 03:01:41;;;;;;;39.40;21.20;;;;;;;6.29;88.80;97416.54;113251;1205;22544;-80
2021/11/03 03:04:16;;;;;;;40.20;22.50;;;;;;;6.25;88.42;97420.45;113197;1206;22461;-80
2021/11/03 03:06:43;;;;;;;35.20;20.40;;;;;;;6.21;88.60;97425.52;113105;1200;138194;-79
2021/11/03 03:09:10;;;;;;;37.00;20.50;;;;;;;6.20;88.56;97425.73;113169;1205;22473;-79
2021/11/03 03:11:39;;;;;;;32.20;19.70;;;;;;;6.19;89.03;97429.06;113130;1206;137727;-81
2021/11/03 03:14:08;;;;;;;36.60;19.30;;;;;;;6.19;88.92;97424.13;113211;1201;22561;-79
2021/11/03 03:16:35;;;;;;;36.50;20.70;;;;;;;6.16;88.66;97424.30;113137;1199;24156;-79
2021/11/03 03:19:03;;;;;;;37.50;19.90;;;;;;;6.14;88.49;97430.95;113007;1205;137999;-82
2021/11/03 03:21:31;;;;;;;34.20;17.90;;;;;;;6.10;88.29;97431.16;113128;1204;24282;-81
2021/11/03 03:24:03;;;;;;;37.60;21.00;;;;;;;6.11;88.75;97431.50;113051;1205;137428;-81
2021/11/03 03:26:30;;;;;;;33.50;18.30;;;;;;;6.09;88.46;97432.65;113182;1205;22726;-81
2021/11/03 03:28:58;;;;;;;37.90;19.70;;;;;;;6.05;88.25;97432.09;113086;1200;137504;-79
2021/11/03 03:31:27;;;;;;;35.00;19.30;;;;;;;6.02;88.21;97433.05;113371;1206;22415;-79
2021/11/03 03:33:57;;;;;;;34.00;18.00;;;;;;;6.00;88.19;97433.07;113166;1205;22991;-79
2021/11/03 03:36:23;;;;;;;33.80;18.40;;;;;;;5.97;87.77;97433.45;113198;1205;137836;-81
2021/11/03 03:38:51;;;;;;;38.20;19.50;;;;;;;5.94;87.79;97431.95;113357;1198;24217;-82
2021/11/03 03:41:20;;;;;;;32.50;18.80;;;;;;;5.89;87.62;97434.30;113029;1206;137497;-79
2021/11/03 03:43:47;;;;;;;36.20;20.30;;;;;;;5.83;87.55;97434.88;113260;1200;22927;-79
2021/11/03 03:46:14;;;;;;;40.50;21.40;;;;;;;5.77;87.53;97443.84;113127;1205;25050;-79
2021/11/03 03:48:41;;;;;;;35.70;19.20;;;;;;;5.74;87.83;97446.23;112952;1198;138213;-79
2021/11/03 03:51:09;;;;;;;38.90;20.90;;;;;;;5.71;88.05;97447.92;113170;1199;22572;-79
2021/11/03 03:53:36;;;;;;;35.20;21.00;;;;;;;5.68;88.16;97454.45;113175;1206;137455;-79
2021/11/03 03:56:04;;;;;;;41.70;21.70;;;;;;;5.66;88.31;97454.20;113170;1206;25135;-79
2021/11/03 03:58:30;;;;;;;32.30;18.50;;;;;;;5.66;88.51;97457.54;113440;1200;22488;-79
2021/11/03 04:00:57;;;;;;;34.80;19.00;;;;;;;5.65;88.34;97453.10;112831;1205;137746;-79
2021/11/03 04:03:24;;;;;;;39.60;19.80;;;;;;;5.66;88.49;97455.27;113289;1206;22441;-79
2021/11/03 04:05:51;;;;;;;41.70;22.10;;;;;;;5.64;88.38;97459.45;113049;1205;137340;-79
2021/11/03 04:08:19;;;;;;;37.30;20.00;;;;;;;5.64;88.55;97460.79;112940;1198;24390;-82
2021/11/03 04:10:47;;;;;;;43.10;20.50;;;;;;;5.63;88.52;97461.20;113065;1205;22978;-79
2021/11/03 04:13:14;;;;;;;33.80;20.00;;;;;;;5.62;88.20;97466.80;113012;1206;137715;-81
2021/11/03 04:15:41;;;;;;;32.50;18.00;;;;;;;5.59;88.36;97469.98;113191;1206;22454;-81
2021/11/03 04:18:08;;;;;;;35.40;19.60;;;;;;;5.53;88.13;97470.77;113020;1198;137430;-79
2021/11/03 04:20:35;;;;;;;38.10;20.70;;;;;;;5.46;88.43;97476.36;112936;1205;24194;-79
2021/11/03 04:23:02;;;;;;;40.60;20.60;;;;;;;5.44;88.52;97481.44;112967;1206;138845;-81
2021/11/03 04:25:29;;;;;;;36.60;19.90;;;;;;;5.42;88.66;97480.41;113116;1200;25069;-79
2021/11/03 04:27:56;;;;;;;34.90;20.00;;;;;;;5.42;88.91;97480.13;113229;1199;25306;-81
2021/11/03 04:30:24;;;;;;;39.00;20.80;;;;;;;5.43;88.84;97481.99;113170;1206;137985;-79
2021/11/03 04:32:51;;;;;;;37.30;20.40;;;;;;;5.43;88.75;97485.52;113326;1205;22725;-79
2021/11/03 04:35:20;;;;;;;42.60;22.40;;;;;;;5.41;88.81;97482.23;113275;1206;138432;-78
2021/11/03 04:37:47;;;;;;;42.30;21.80;;;;;;;5.39;88.40;97486.67;112974;1206;22449;-79
2021/11/03 04:40:18;;;;;;;30.90;18.50;;;;;;;5.38;88.35;97484.65;113058;1198;22440;-78
2021/11/03 04:42:47;;;;;;;33.80;18.90;;;;;;;5.37;88.26;97490.98;112963;1205;137351;-79
2021/11/03 04:45:14;;;;;;;32.90;18.80;;;;;;;5.35;88.44;97492.55;112824;1200;24045;-81
2021/11/03 04:47:41;;;;;;;32.80;18.40;;;;;;;5.33;88.47;97494.05;113057;1206;137810;-80
2021/11/03 04:50:19;;;;;;;32.00;18.80;;;;;;;5.31;88.38;97497.73;113231;1200;22452;-79
2021/11/03 04:52:45;;;;;;;31.50;16.30;;;;;;;5.32;88.63;97494.02;113363;1205;25882;-79
2021/11/03 04:55:12;;;;;;;29.90;17.20;;;;;;;5.32;88.75;97494.88;113085;1205;137904;-80
2021/11/03 04:57:40;;;;;;;34.30;17.70;;;;;;;5.31;88.53;97500.90;113134;1205;23618;-79
2021/11/03 05:00:13;;;;;;;30.70;17.60;;;;;;;5.27;88.31;97500.64;112952;1198;137531;-79
2021/11/03 05:02:40;;;;;;;32.30;17.50;;;;;;;5.26;88.63;97504.09;113358;1205;24155;-79
2021/11/03 05:05:07;;;;;;;29.40;16.70;;;;;;;5.27;88.57;97502.96;113050;1206;138564;-79
2021/11/03 05:07:34;;;;;;;28.90;17.10;;;;;;;5.27;88.41;97499.96;113242;1206;22452;-80
2021/11/03 05:10:01;;;;;;;33.10;18.00;;;;;;;5.29;88.43;97499.98;113205;1198;24062;-79
2021/11/03 05:12:43;;;;;;;31.90;17.30;;;;;;;5.28;88.42;97500.40;113356;1206;137520;-79
2021/11/03 05:15:10;;;;;;;26.00;15.90;;;;;;;5.25;88.20;97507.57;113389;1206;23238;-80
2021/11/03 05:17:37;;;;;;;28.20;15.00;;;;;;;5.22;88.22;97509.06;112887;1206;137832;-81
2021/11/03 05:20:06;;;;;;;29.20;14.80;;;;;;;5.22;88.48;97507.53;113025;1198;24078;-80
2021/11/03 05:22:35;;;;;;;27.70;15.30;;;;;;;5.19;88.06;97512.93;113140;1206;22514;-80
2021/11/03 05:25:01;;;;;;;30.80;16.60;;;;;;;5.16;87.98;97514.90;113033;1206;137347;-80
2021/11/03 05:27:27;;;;;;;29.80;17.00;;;;;;;5.14;88.11;97512.98;113098;1205;25195;-80
2021/11/03 05:29:54;;;;;;;28.40;15.10;;;;;;;5.13;87.88;97513.02;113026;1205;138453;-80
2021/11/03 05:32:20;;;;;;;26.60;14.90;;;;;;;5.13;87.78;97511.00;113106;1205;25104;-80
2021/11/03 05:34:47;;;;;;;25.00;15.10;;;;;;;5.10;87.80;97507.39;113310;1205;22455;-80
2021/11/03 05:37:17;;;;;;;25.60;14.80;;;;;;;5.07;87.83;97504.66;113128;1205;137307;-80
2021/11/03 05:39:44;;;;;;;27.40;14.50;;;;;;;5.06;87.79;97499.71;113326;1200;22428;-80
2021/11/03 05:42:11;;;;;;;23.50;12.80;;;;;;;5.03;87.79;97497.27;113003;1206;138019;-80
2021/11/03 05:44:37;;;;;;;20.60;12.50;;;;;;;5.02;88.00;97494.17;113185;1205;22451;-80
2021/11/03 05:47:05;;;;;;;22.10;12.70;;;;;;;4.99;88.14;97494.16;113311;1205;137639;-80
2021/11/03 05:49:33;;;;;;;29.00;14.80;;;;;;;4.96;88.16;97497.73;113336;1198;24254;-80
2021/11/03 05:52:01;;;;;;;23.60;12.30;;;;;;;4.95;88.52;97503.56;113203;1205;23181;-80
2021/11/03 05:54:28;;;;;;;19.50;11.90;;;;;;;4.97;88.42;97506.78;112993;1200;138521;-80
2021/11/03 05:56:59;;;;;;;24.40;14.20;;;;;;;4.97;87.91;97508.19;113346;1199;22452;-80
2021/11/03 05:59:25;;;;;;;18.70;12.30;;;;;;;4.91;86.92;97513.02;113262;1205;137608;-80
2021/11/03 06:01:52;;;;;;;24.30;13.80;;;;;;;4.86;87.34;97519.85;113090;1200;29519;-79
2021/11/03 06:04:18;;;;;;;21.80;12.60;;;;;;;4.84;87.54;97525.45;113299;1205;22594;-80
2021/11/03 06:06:44;;;;;;;20.40;11.50;;;;;;;4.83;87.77;97525.10;113121;1205;138001;-80
2021/11/03 06:09:11;;;;;;;19.00;11.30;;;;;;;4.84;87.95;97531.93;113225;1206;22473;-80
2021/11/03 06:11:41;;;;;;;21.70;12.60;;;;;;;4.80;87.28;97537.09;112972;1200;137802;-79
2021/11/03 06:14:09;;;;;;;23.70;12.90;;;;;;;4.78;87.79;97547.33;113232;1206;22510;-80
2021/11/03 06:16:36;;;;;;;20.90;12.60;;;;;;;4.80;88.10;97552.00;113123;1206;24046;-80
2021/11/03 06:19:03;;;;;;;20.70;12.00;;;;;;;4.81;88.26;97554.48;112932;1206;138710;-80
2021/11/03 06:21:29;;;;;;;18.90;11.80;;;;;;;4.85;88.38;97559.39;113317;1200;22672;-80
2021/11/03 06:23:56;;;;;;;20.70;11.20;;;;;;;4.90;88.27;97560.89;113048;1207;137685;-80
2021/11/03 06:26:23;;;;;;;20.10;12.30;;;;;;;4.92;88.37;97563.88;113076;1205;22879;-80
2021/11/03 06:28:50;;;;;;;24.20;13.50;;;;;;;4.97;88.54;97569.16;113074;1206;22443;-80
2021/11/03 06:31:17;;;;;;;24.60;13.10;;;;;;;5.03;88.55;97570.08;113019;1205;138435;-80
2021/11/03 06:33:43;;;;;;;22.40;13.20;;;;;;;5.06;88.49;97574.79;113163;1206;24085;-80
2021/11/03 06:36:13;;;;;;;20.40;12.00;;;;;;;5.12;88.54;97580.93;112874;1205;137410;-80
2021/11/03 06:38:39;;;;;;;21.40;13.10;;;;;;;5.18;88.52;97584.63;112977;1205;22454;-80
2021/11/03 06:41:07;;;;;;;21.20;12.90;;;;;;;5.20;88.41;97587.91;112774;1206;137944;-80
2021/11/03 06:43:34;;;;;;;21.00;12.80;;;;;;;5.23;88.27;97594.09;113032;1205;22482;-80
2021/11/03 06:46:00;;;;;;;20.20;11.70;;;;;;;5.25;88.46;97596.16;113112;1205;25135;-80
2021/11/03 06:48:27;;;;;;;19.00;11.40;;;;;;;5.29;88.43;97601.60;112959;1206;137502;-80
2021/11/03 06:50:53;;;;;;;21.30;13.20;;;;;;;5.30;88.31;97605.23;113147;1199;24152;-79
2021/11/03 06:53:25;;;;;;;26.40;14.30;;;;;;;5.31;88.27;97608.30;113405;1205;137913;-80
2021/11/03 06:55:52;;;;;;;22.30;12.60;;;;;;;5.36;88.71;97608.42;113494;1205;22460;-80
2021/11/03 06:58:19;;;;;;;18.70;11.80;;;;;;;5.42;88.59;97602.50;113180;1205;22445;-80
2021/11/03 07:00:48;;;;;;;18.70;10.90;;;;;;;5.47;88.46;97599.66;113298;1199;137803;-80
2021/11/03 07:03:15;;;;;;;17.60;11.00;;;;;;;5.52;88.67;97599.61;113634;1200;22454;-80
2021/11/03 07:05:45;;;;;;;18.90;11.30;;;;;;;5.59;88.90;97606.85;113366;1205;137673;-80
2021/11/03 07:08:12;;;;;;;17.10;10.90;;;;;;;5.62;88.69;97609.11;113298;1205;23107;-80
2021/11/03 07:10:42;;;;;;;17.80;10.30;;;;;;;5.64;88.78;97610.76;113200;1205;22473;-80
2021/11/03 07:13:10;;;;;;;14.70;9.80;;;;;;;5.68;89.08;97612.41;113435;1200;138744;-80
2021/11/03 07:15:37;;;;;;;12.10;8.00;;;;;;;5.74;89.18;97611.20;113193;1206;25107;-80
2021/11/03 07:18:04;;;;;;;14.10;8.70;;;;;;;5.78;89.06;97612.86;113287;1200;137235;-80
2021/11/03 07:20:30;;;;;;;12.80;8.20;;;;;;;5.84;89.21;97618.98;113353;1205;23184;-80
2021/11/03 07:22:57;;;;;;;13.50;8.60;;;;;;;5.91;89.32;97617.04;113001;1200;137560;-80
2021/11/03 07:25:24;;;;;;;11.20;7.50;;;;;;;5.97;89.39;97620.00;113257;1199;22509;-80
2021/11/03 07:27:53;;;;;;;13.30;7.90;;;;;;;6.04;89.45;97622.23;113303;1205;22816;-80
2021/11/03 07:30:23;;;;;;;10.30;6.90;;;;;;;6.13;89.24;97623.39;113111;1205;137505;-81
2021/11/03 07:33:08;;;;;;;13.40;6.80;;;;;;;6.24;89.30;97629.52;113330;1198;22448;-81
2021/11/03 07:35:36;;;;;;;9.00;6.90;;;;;;;6.29;88.71;97633.70;113147;1205;140260;-80
2021/11/03 07:38:04;;;;;;;12.40;7.80;;;;;;;6.36;88.77;97635.19;113167;1205;24172;-81
2021/11/03 07:40:40;;;;;;;10.70;8.00;;;;;;;6.42;88.47;97637.05;113248;1206;24036;-81
2021/11/03 07:43:08;;;;;;;11.20;7.20;;;;;;;6.50;88.74;97638.99;113134;1199;137981;-81
2021/11/03 07:45:36;;;;;;;13.90;8.80;;;;;;;6.56;88.17;97638.75;113403;1206;25106;-81
2021/11/03 07:48:04;;;;;;;15.20;10.30;;;;;;;6.61;87.94;97636.02;113205;1206;137406;-81
2021/11/03 07:50:36;;;;;;;14.60;8.90;;;;;;;6.66;88.00;97636.17;113294;1205;23245;-81
2021/11/03 07:53:05;;;;;;;13.30;8.50;;;;;;;6.70;87.57;97643.79;113344;1199;138668;-81
2021/11/03 07:55:32;;;;;;;12.40;8.80;;;;;;;6.76;87.68;97646.29;113401;1205;25024;-81
2021/11/03 07:57:58;;;;;;;15.80;9.20;;;;;;;6.84;88.08;97638.86;113538;1206;22422;-81
2021/11/03 08:00:29;;;;;;;13.30;9.40;;;;;;;6.89;87.30;97644.75;113185;1205;137105;-81
2021/11/03 08:02:55;;;;;;;13.60;8.90;;;;;;;6.93;87.58;97645.95;113268;1200;22471;-81
2021/11/03 08:05:27;;;;;;;12.70;8.50;;;;;;;6.99;87.58;97648.23;113148;1205;138370;-81
2021/11/03 08:07:59;;;;;;;14.00;9.20;;;;;;;7.05;87.26;97651.21;113219;1205;22456;-81
2021/11/03 08:10:28;;;;;;;12.50;9.50;;;;;;;7.11;87.37;97647.16;113327;1206;22458;-81
2021/11/03 08:12:56;;;;;;;14.80;9.10;;;;;;;7.17;87.24;97642.19;113443;1198;138417;-81
2021/11/03 08:15:24;;;;;;;18.60;10.40;;;;;;;7.24;87.03;97647.11;113406;1205;25123;-81
2021/11/03 08:17:51;;;;;;;13.10;8.90;;;;;;;7.31;87.11;97653.09;113355;1206;137994;-81
2021/11/03 08:20:23;;;;;;;17.80;11.30;;;;;;;7.39;87.36;97657.52;113445;1205;22539;-81
2021/11/03 08:22:56;;;;;;;14.60;10.10;;;;;;;7.47;87.23;97660.42;113487;1205;22600;-81
2021/11/03 08:25:23;;;;;;;14.10;9.60;;;;;;;7.54;87.22;97660.16;113570;1200;137696;-82
2021/11/03 08:27:50;;;;;;;15.70;10.50;;;;;;;7.62;87.20;97661.82;113244;1205;22625;-82
2021/11/03 08:30:18;;;;;;;15.90;10.30;;;;;;;7.72;86.79;97663.55;113328;1192;137420;-81
2021/11/03 08:32:54;;;;;;;16.30;10.50;;;;;;;7.79;86.49;97663.92;113275;1198;22441;-82
2021/11/03 08:35:23;;;;;;;11.60;6.60;;;;;;;7.86;86.35;97667.52;113409;1205;137560;-82
2021/11/03 08:37:51;;;;;;;7.40;6.10;;;;;;;7.93;86.00;97669.62;113243;1206;22435;-82
2021/11/03 08:40:22;;;;;;;9.60;5.60;;;;;;;8.00;85.49;97668.45;113435;1205;22540;-82
2021/11/03 08:42:50;;;;;;;7.10;5.10;;;;;;;8.09;85.71;97666.39;112855;1206;137779;-82
2021/11/03 08:45:18;;;;;;;8.50;5.50;;;;;;;8.15;85.57;97663.89;113210;1205;31996;-82
2021/11/03 08:47:48;;;;;;;8.60;5.60;;;;;;;8.23;85.52;97666.27;112870;1207;137002;-81
2021/11/03 08:50:19;;;;;;;5.90;4.40;;;;;;;8.31;85.35;97669.80;113474;1205;22495;-81
2021/11/03 08:52:46;;;;;;;7.20;4.40;;;;;;;8.41;84.57;97670.48;113156;1205;22462;-81
2021/11/03 08:55:14;;;;;;;5.90;4.80;;;;;;;8.50;84.61;97664.83;112848;1199;137093;-81
2021/11/03 08:57:40;;;;;;;4.30;3.90;;;;;;;8.58;84.74;97667.86;112937;1205;22489;-81
2021/11/03 09:00:11;;;;;;;5.30;4.20;;;;;;;8.65;84.68;97664.33;112859;1205;139585;-82
2021/11/03 09:02:37;;;;;;;5.10;4.10;;;;;;;8.74;84.18;97663.89;112926;1205;25125;-81
2021/11/03 09:05:05;;;;;;;6.80;4.30;;;;;;;8.83;83.93;97661.60;112856;1199;137643;-81
2021/11/03 09:07:32;;;;;;;5.00;4.20;;;;;;;8.90;83.29;97659.52;113001;1200;22501;-81
2021/11/03 09:10:05;;;;;;;7.00;4.00;;;;;;;9.01;82.95;97667.02;113058;1205;22500;-81
2021/11/03 09:12:31;;;;;;;7.10;4.10;;;;;;;9.08;82.11;97665.40;112825;1207;137524;-81
2021/11/03 09:14:58;;;;;;;4.70;3.80;;;;;;;9.15;81.89;97662.35;113133;1206;25137;-80
2021/11/03 09:17:26;;;;;;;5.00;3.80;;;;;;;9.23;82.73;97660.27;112861;1205;137285;-81
2021/11/03 09:20:09;;;;;;;6.30;3.30;;;;;;;9.34;81.89;97663.20;112957;1205;22429;-81
2021/11/03 09:22:38;;;;;;;6.80;3.80;;;;;;;9.40;80.92;97660.16;113256;1206;24313;-81
2021/11/03 09:25:14;;;;;;;5.00;3.30;;;;;;;9.47;81.05;97661.04;112938;1199;137066;-81
2021/11/03 09:27:41;;;;;;;5.50;3.00;;;;;;;9.54;81.45;97663.01;113021;1205;22562;-81
2021/11/03 09:30:11;;;;;;;5.20;3.20;;;;;;;9.60;81.30;97660.50;113024;1205;136967;-80
2021/11/03 09:32:41;;;;;;;4.30;2.70;;;;;;;9.68;80.94;97661.55;113069;1199;22452;-80
2021/11/03 09:35:14;;;;;;;5.10;3.30;;;;;;;9.77;81.12;97660.68;112908;1200;137590;-80
2021/11/03 09:37:40;;;;;;;4.80;3.50;;;;;;;9.86;81.04;97657.89;113118;1205;23313;-80
2021/11/03 09:40:16;;;;;;;7.20;3.30;;;;;;;9.92;80.80;97657.38;113057;1199;22421;-80
2021/11/03 09:42:44;;;;;;;5.70;4.00;;;;;;;9.98;80.74;97657.39;113087;1205;137101;-80
2021/11/03 09:45:21;;;;;;;6.30;3.40;;;;;;;10.05;80.75;97649.16;113428;1206;23051;-80
2021/11/03 09:48:27;;;;;;;5.40;3.30;;;;;;;10.11;79.55;97648.87;113886;1200;137791;-81
2021/11/03 09:50:57;;;;;;;4.60;3.10;;;;;;;10.19;78.84;97642.35;113594;1206;23362;-80
2021/11/03 09:53:31;;;;;;;4.10;3.30;;;;;;;10.28;78.63;97640.83;113729;1206;137477;-80
2021/11/03 09:55:59;;;;;;;5.30;3.00;;;;;;;10.38;78.98;97642.53;113449;1200;25124;-80
2021/11/03 09:58:40;;;;;;;5.20;2.80;;;;;;;10.46;78.50;97647.91;113526;1206;22457;-80
2021/11/03 10:01:20;;;;;;;4.30;2.50;;;;;;;10.50;78.33;97646.20;113403;1205;137381;-80
2021/11/03 10:04:09;;;;;;;;;;;;;;;10.57;77.67;97644.64;113902;1205;22422;-80
2021/11/03 10:06:59;;;;;;;2.30;2.10;;;;;;;10.60;77.53;97646.94;114215;1200;124416;-81
2021/11/03 10:09:26;;;;;;;3.60;2.40;;;;;;;10.68;76.96;97647.10;113841;1205;22470;-80
2021/11/03 10:11:53;;;;;;;3.00;1.90;;;;;;;10.76;76.29;97647.62;113651;1205;138248;-80
2021/11/03 10:14:21;;;;;;;2.40;2.10;;;;;;;10.84;76.46;97651.84;114134;1204;22477;-80
2021/11/03 10:16:52;;;;;;;3.60;2.30;;;;;;;10.89;75.03;97643.20;113900;1203;22603;-80
2021/11/03 10:19:19;;;;;;;3.90;2.00;;;;;;;10.96;75.21;97641.16;113293;1205;137161;-79
2021/11/03 10:22:18;;;;;;;2.60;1.80;;;;;;;11.04;75.27;97645.48;113209;1206;25179;-79
2021/11/03 10:24:58;;;;;;;3.00;1.80;;;;;;;11.12;74.72;97645.84;113417;1200;137302;-79
2021/11/03 10:27:30;;;;;;;2.20;1.50;;;;;;;11.18;74.64;97642.30;113975;1199;30638;-79
2021/11/03 10:30:21;;;;;;;2.40;1.70;;;;;;;11.22;74.41;97642.25;113491;1198;137405;-79
2021/11/03 10:32:48;;;;;;;1.70;1.60;;;;;;;11.30;73.88;97642.27;113129;1205;22451;-80
2021/11/03 10:35:23;;;;;;;5.20;1.50;;;;;;;11.36;73.29;97640.48;113156;1200;138495;-79
2021/11/03 10:38:03;;;;;;;4.30;1.50;;;;;;;11.44;71.67;97639.35;113071;1205;31952;-80
2021/11/03 10:41:02;;;;;;;2.10;1.60;;;;;;;11.49;71.78;97634.61;113225;1205;22592;-80
2021/11/03 10:43:42;;;;;;;5.20;1.90;;;;;;;11.54;71.07;97632.06;112892;1205;138318;-80
2021/11/03 10:46:23;;;;;;;3.40;1.90;;;;;;;11.61;71.06;97630.53;113169;1203;22446;-80
2021/11/03 10:49:36;;;;;;;3.90;1.40;;;;;;;11.66;70.58;97629.49;113035;1206;137720;-81
2021/11/03 10:52:09;;;;;;;1.60;1.20;;;;;;;11.70;70.05;97615.53;113146;1205;22467;-80
2021/11/03 10:54:45;;;;;;;1.50;1.30;;;;;;;11.73;70.04;97616.79;113271;1206;137732;-79
2021/11/03 10:57:37;;;;;;;3.30;1.60;;;;;;;11.78;69.28;97615.04;113200;1200;24196;-80
2021/11/03 11:00:19;;;;;;;1.50;1.40;;;;;;;11.84;69.39;97609.52;112856;1205;137733;-80
2021/11/03 11:03:00;;;;;;;2.80;1.70;;;;;;;11.89;68.70;97600.73;113114;1202;23385;-80
2021/11/03 11:05:30;;;;;;;2.00;1.60;;;;;;;11.95;69.22;97600.93;112943;1205;137378;-79
2021/11/03 11:08:21;;;;;;;2.40;1.70;;;;;;;12.00;69.29;97599.87;113043;1205;25173;-79
2021/11/03 11:10:58;;;;;;;1.90;1.20;;;;;;;12.05;68.75;97597.20;113055;1205;22461;-80
2021/11/03 11:13:34;;;;;;;2.40;1.40;;;;;;;12.09;68.10;97596.05;113068;1205;137082;-80
2021/11/03 11:16:07;;;;;;;1.80;1.30;;;;;;;12.14;68.16;97595.91;113197;1203;22586;-80
2021/11/03 11:18:44;;;;;;;2.60;1.30;;;;;;;12.19;66.93;97593.45;113502;1198;137265;-80
2021/11/03 11:21:46;;;;;;;3.60;1.40;;;;;;;12.22;66.78;97592.41;113116;1205;22448;-80
2021/11/03 11:24:41;;;;;;;1.70;1.20;;;;;;;12.27;66.49;97588.13;113004;1206;137295;-79
2021/11/03 11:27:29;;;;;;;4.00;1.50;;;;;;;12.30;66.45;97583.97;113452;1200;25122;-80
2021/11/03 11:30:17;;;;;;;2.60;1.30;;;;;;;12.37;66.90;97580.08;112919;1205;137163;-80
2021/11/03 11:33:02;;;;;;;4.10;1.30;;;;;;;12.42;66.53;97580.05;113145;1205;22427;-79